CYZX

CFB Greenwood Airport

Greenwood, Nova Scotia, Canada
METAR CYZX 180200Z 31009G15KT 15SM SCT026 M09/M14 A3017 RMK SC4 WNDY HILL UNAVBL SLP218
Observed Flight Rules
Dec-18 @ 02:00 UTC (an hour ago) Visual Flight Rules
Wind Visibility Clouds
310° at 9 knots
 Gusting to 15 knots
15 miles
  • Scattered at 2,600' AGL
Temperatures Readings
Current -9°C / 16°F
Dewpoint -14°C / 7°F
Humidity 67%
Altimeter 30.17" Hg
Pressure 1021.8 hPa
Elevation 28
METAR CYZX 180200Z 31009G15KT 15SM SCT026 M09/M14 A3017 RMK SC4 WNDY HILL UNAVBL SLP218
Observed Flight Rules
Dec-18 @ 02:00 UTC
(an hour ago)
VFR
Wind Visibility
310° at 9 knots
 Gusting to 15 knots
15 miles
Clouds
  • Scattered at 2,600' AGL
Temperature Dewpoint
-9°C / 16°F -14°C / 7°F
Humidity Altimeter Pressure
67% 30.17" Hg 1021.8 hPa